createdAt,value
2023-04-12T00:00:55.883Z,95553.23
2023-04-12T00:03:25.535Z,95555.29
2023-04-12T00:05:56.604Z,95553.96
2023-04-12T00:08:24.789Z,95548.94
2023-04-12T00:10:52.857Z,95548.27
2023-04-12T00:13:20.932Z,95544.80
2023-04-12T00:15:49.183Z,95542.41
2023-04-12T00:18:17.281Z,95548.19
2023-04-12T00:20:45.242Z,95540.12
2023-04-12T00:23:13.746Z,95537.73
2023-04-12T00:25:41.906Z,95539.50
2023-04-12T00:28:10.183Z,95540.27
2023-04-12T00:30:38.116Z,95535.54
2023-04-12T00:33:08.400Z,95530.70
2023-04-12T00:35:36.641Z,95523.27
2023-04-12T00:38:10.563Z,95520.71
2023-04-12T00:40:43.038Z,95514.21
2023-04-12T00:43:15.633Z,95513.98
2023-04-12T00:45:44.607Z,95506.81
2023-04-12T00:48:12.992Z,95510.63
2023-04-12T00:50:47.763Z,95506.95
2023-04-12T00:53:16.018Z,95503.43
2023-04-12T00:55:44.651Z,95502.81
2023-04-12T00:58:14.457Z,95500.61
2023-04-12T01:00:50.439Z,95497.02
2023-04-12T01:03:24.699Z,95495.46
2023-04-12T01:06:14.061Z,95494.06
2023-04-12T01:08:58.223Z,95494.27
2023-04-12T01:11:29.187Z,95491.01
2023-04-12T01:14:11.293Z,95494.65
2023-04-12T01:16:44.648Z,95489.49
2023-04-12T01:19:29.990Z,95482.35
2023-04-12T01:22:11.718Z,95483.41
2023-04-12T01:24:45.632Z,95483.07
2023-04-12T01:27:38.312Z,95481.46
2023-04-12T01:30:08.674Z,95477.56
2023-04-12T01:32:37.907Z,95476.74
2023-04-12T01:35:08.908Z,95477.88
2023-04-12T01:37:37.594Z,95472.58
2023-04-12T01:40:06.372Z,95475.92
2023-04-12T01:42:34.457Z,95479.44
2023-04-12T01:45:03.403Z,95476.73
2023-04-12T01:47:31.830Z,95475.64
2023-04-12T01:50:12.595Z,95468.42
2023-04-12T01:52:43.534Z,95468.67
2023-04-12T01:55:12.755Z,95458.20
2023-04-12T01:57:42.007Z,95461.55
2023-04-12T02:00:11.768Z,95461.91
2023-04-12T02:02:43.111Z,95459.21
2023-04-12T02:05:11.586Z,95456.11
2023-04-12T02:07:40.571Z,95455.98
2023-04-12T02:10:13.064Z,95453.15
2023-04-12T02:12:41.934Z,95445.95
2023-04-12T02:15:10.533Z,95443.27
2023-04-12T02:17:39.228Z,95440.39
2023-04-12T02:20:12.154Z,95443.23
2023-04-12T02:22:40.470Z,95439.48
2023-04-12T02:25:08.489Z,95434.14
2023-04-12T02:27:36.651Z,95432.79
2023-04-12T02:30:05.391Z,95432.52
2023-04-12T02:32:45.353Z,95431.56
2023-04-12T02:35:27.492Z,95431.60
2023-04-12T02:38:00.229Z,95430.88
2023-04-12T02:40:30.819Z,95429.50
2023-04-12T02:42:58.823Z,95427.81
2023-04-12T02:45:27.523Z,95426.96
2023-04-12T02:47:56.128Z,95426.52
2023-04-12T02:50:26.965Z,95426.09
2023-04-12T02:53:00.746Z,95427.96
2023-04-12T02:55:30.864Z,95425.35
2023-04-12T02:57:59.857Z,95423.99
2023-04-12T03:00:28.561Z,95422.80
2023-04-12T03:03:03.074Z,95424.19
2023-04-12T03:05:32.054Z,95417.91
2023-04-12T03:08:00.642Z,95416.40
2023-04-12T03:10:37.233Z,95417.29
2023-04-12T03:13:05.278Z,95411.11
2023-04-12T03:15:37.481Z,95412.48
2023-04-12T03:18:06.214Z,95410.70
2023-04-12T03:20:46.858Z,95413.64
2023-04-12T03:23:15.713Z,95411.85
2023-04-12T03:25:50.221Z,95417.61
2023-04-12T03:28:36.535Z,95416.86
2023-04-12T03:31:07.427Z,95417.92
2023-04-12T03:33:41.783Z,95419.19
2023-04-12T03:36:18.170Z,95418.45
2023-04-12T03:38:47.352Z,95420.44
2023-04-12T03:41:16.134Z,95419.15
2023-04-12T03:43:44.093Z,95420.52
2023-04-12T03:46:18.267Z,95422.46
2023-04-12T03:48:52.099Z,95421.23
2023-04-12T03:51:22.372Z,95423.61
2023-04-12T03:53:51.228Z,95422.34
2023-04-12T03:56:21.061Z,95414.42
2023-04-12T03:58:51.063Z,95419.20
2023-04-12T04:01:21.390Z,95421.67
2023-04-12T04:03:50.637Z,95421.66
2023-04-12T04:06:21.837Z,95425.09
2023-04-12T04:08:50.002Z,95428.04
2023-04-12T04:11:17.952Z,95428.15
2023-04-12T04:13:49.631Z,95429.62
2023-04-12T04:16:21.612Z,95430.87
2023-04-12T04:18:50.376Z,95431.79
2023-04-12T04:21:22.554Z,95434.04
2023-04-12T04:23:52.038Z,95433.55
2023-04-12T04:26:20.542Z,95439.67
2023-04-12T04:29:01.925Z,95436.39
2023-04-12T04:31:37.967Z,95438.55
2023-04-12T04:34:07.384Z,95438.34
2023-04-12T04:36:38.506Z,95441.95
2023-04-12T04:39:07.321Z,95443.85
2023-04-12T04:41:41.554Z,95445.46
2023-04-12T04:44:29.473Z,95446.94
2023-04-12T04:46:59.389Z,95442.73
2023-04-12T04:49:27.772Z,95449.36
2023-04-12T04:51:56.961Z,95453.05
2023-04-12T04:54:26.772Z,95459.54
2023-04-12T04:56:55.160Z,95457.91
2023-04-12T04:59:24.042Z,95460.72
2023-04-12T05:01:52.992Z,95464.27
2023-04-12T05:04:21.463Z,95471.19
2023-04-12T05:06:50.990Z,95472.89
2023-04-12T05:09:20.947Z,95477.39
2023-04-12T05:11:55.875Z,95473.52
2023-04-12T05:14:31.002Z,95471.64
2023-04-12T05:17:09.623Z,95472.66
2023-04-12T05:19:37.600Z,95470.61
2023-04-12T05:22:05.909Z,95472.41
2023-04-12T05:24:34.049Z,95476.68
2023-04-12T05:27:02.421Z,95477.73
2023-04-12T05:29:30.714Z,95480.10
2023-04-12T05:31:59.385Z,95480.84
2023-04-12T05:34:27.536Z,95484.02
2023-04-12T05:36:57.166Z,95462.81
2023-04-12T05:39:26.067Z,95485.77
2023-04-12T05:41:54.341Z,95486.08
2023-04-12T05:44:22.416Z,95483.59
2023-04-12T05:46:50.900Z,95480.70
2023-04-12T05:49:19.278Z,95480.23
2023-04-12T05:51:47.454Z,95485.90
2023-04-12T05:54:21.368Z,95480.39
2023-04-12T05:56:52.097Z,95483.27
2023-04-12T05:59:20.673Z,95485.41
2023-04-12T06:01:48.780Z,95482.38
2023-04-12T06:04:19.051Z,95480.75
2023-04-12T06:06:47.658Z,95481.63
2023-04-12T06:09:16.142Z,95481.55
2023-04-12T06:11:45.035Z,95482.44
2023-04-12T06:14:13.140Z,95481.30
2023-04-12T06:16:42.123Z,95482.08
2023-04-12T06:19:11.538Z,95482.08
2023-04-12T06:21:39.782Z,95480.98
2023-04-12T06:24:09.901Z,95479.90
2023-04-12T06:26:40.089Z,95481.41
2023-04-12T06:29:09.570Z,95479.45
2023-04-12T06:31:37.930Z,95480.63
2023-04-12T06:34:06.376Z,95473.91
2023-04-12T06:36:35.271Z,95476.96
2023-04-12T06:39:04.059Z,95474.18
2023-04-12T06:41:32.050Z,95474.89
2023-04-12T06:44:01.749Z,95471.83
2023-04-12T06:46:30.395Z,95467.76
2023-04-12T06:48:59.084Z,95465.95
2023-04-12T06:53:20.737Z,95462.13
2023-04-12T06:55:48.806Z,95461.44
2023-04-12T06:58:17.091Z,95465.75
2023-04-12T07:00:45.471Z,95465.73
2023-04-12T07:03:13.822Z,95468.02
2023-04-12T07:05:42.129Z,95466.38
2023-04-12T07:08:10.195Z,95458.31
2023-04-12T07:10:38.269Z,95459.78
2023-04-12T07:13:08.476Z,95459.52
2023-04-12T07:15:36.635Z,95463.04
2023-04-12T07:18:05.086Z,95463.32
2023-04-12T07:20:33.321Z,95461.23
2023-04-12T07:23:01.343Z,95464.56
2023-04-12T07:25:29.773Z,95457.86
2023-04-12T07:27:57.744Z,95456.51
2023-04-12T07:30:26.478Z,95456.09
2023-04-12T07:32:58.466Z,95458.15
2023-04-12T07:35:34.256Z,95443.17
2023-04-12T07:38:02.209Z,95461.63
2023-04-12T07:40:30.279Z,95462.63
2023-04-12T07:42:58.354Z,95456.14
2023-04-12T07:45:26.639Z,95458.15
2023-04-12T07:47:54.715Z,95463.52
2023-04-12T07:50:23.061Z,95466.86
2023-04-12T07:52:51.255Z,95466.81
2023-04-12T07:55:19.335Z,95464.83
2023-04-12T07:57:47.236Z,95464.40
2023-04-12T08:00:16.602Z,95464.28
2023-04-12T08:02:44.882Z,95459.93
2023-04-12T08:05:13.167Z,95459.52
2023-04-12T08:07:41.232Z,95468.96
2023-04-12T08:10:09.498Z,95462.18
2023-04-12T08:12:37.677Z,95466.72
2023-04-12T08:15:06.380Z,95460.55
2023-04-12T08:17:34.443Z,95462.39
2023-04-12T08:20:04.768Z,95462.92
2023-04-12T08:22:32.829Z,95464.20
2023-04-12T08:25:00.908Z,95463.39
2023-04-12T08:27:29.494Z,95469.97
2023-04-12T08:29:57.872Z,95472.04
2023-04-12T08:32:26.187Z,95472.56
2023-04-12T08:34:54.241Z,95475.36
2023-04-12T08:37:22.286Z,95478.00
2023-04-12T08:39:50.564Z,95477.42
2023-04-12T08:42:18.632Z,95471.19
2023-04-12T08:44:46.761Z,95473.27
2023-04-12T08:47:14.774Z,95478.55
2023-04-12T08:49:42.742Z,95482.87
2023-04-12T08:52:11.206Z,95486.59
2023-04-12T08:54:39.380Z,95479.65
2023-04-12T08:57:08.399Z,95481.77
2023-04-12T08:59:39.860Z,95483.65
2023-04-12T09:02:08.074Z,95482.34
2023-04-12T09:04:48.651Z,95482.34
2023-04-12T09:07:17.497Z,95490.38
2023-04-12T09:09:47.067Z,95492.66
2023-04-12T09:12:15.979Z,95489.95
2023-04-12T09:14:44.928Z,95491.12
2023-04-12T09:17:26.468Z,95495.54
2023-04-12T09:19:57.364Z,95496.96
2023-04-12T09:22:35.621Z,95498.94
2023-04-12T09:25:03.777Z,95494.24
2023-04-12T09:27:46.590Z,95490.30
2023-04-12T09:30:15.917Z,95488.03
2023-04-12T09:32:44.276Z,95487.07
2023-04-12T09:35:12.448Z,95489.50
2023-04-12T09:37:40.938Z,95491.84
2023-04-12T09:40:09.944Z,95489.23
2023-04-12T09:42:52.027Z,95488.91
2023-04-12T09:45:25.561Z,95485.36
2023-04-12T09:47:54.914Z,95485.48
2023-04-12T09:50:29.658Z,95478.63
2023-04-12T09:52:57.954Z,95482.41
2023-04-12T09:55:27.549Z,95480.09
2023-04-12T09:57:56.275Z,95471.54
2023-04-12T10:00:27.044Z,95471.11
2023-04-12T10:02:56.250Z,95470.77
2023-04-12T10:05:27.119Z,95463.55
2023-04-12T10:07:56.982Z,95466.17
2023-04-12T10:10:26.096Z,95473.33
2023-04-12T10:12:54.273Z,95473.35
2023-04-12T10:15:22.571Z,95474.95
2023-04-12T10:17:57.885Z,95476.55
2023-04-12T10:20:29.163Z,95479.48
2023-04-12T10:22:59.914Z,95477.29
2023-04-12T10:25:31.147Z,95481.27
2023-04-12T10:28:14.070Z,95480.80
2023-04-12T10:30:42.130Z,95479.10
2023-04-12T10:33:10.201Z,95479.65
2023-04-12T10:36:03.197Z,95477.54
2023-04-12T10:38:35.801Z,95478.95
2023-04-12T10:41:15.661Z,95476.21
2023-04-12T10:43:51.007Z,95475.36
2023-04-12T10:46:38.610Z,95477.10
2023-04-12T10:49:14.418Z,95480.88
2023-04-12T10:57:41.340Z,95480.35
2023-04-12T11:00:10.077Z,95477.93
2023-04-12T11:03:04.347Z,95476.77
2023-04-12T11:05:41.401Z,95475.92
2023-04-12T11:08:29.909Z,95476.63
2023-04-12T11:11:24.375Z,95476.15
2023-04-12T11:13:55.565Z,95476.94
2023-04-12T11:16:23.934Z,95479.70
2023-04-12T11:21:24.925Z,95491.41
2023-04-12T11:23:53.860Z,95486.46
2023-04-12T11:26:22.658Z,95475.98
2023-04-12T11:28:53.283Z,95493.44
2023-04-12T11:31:22.074Z,95491.52
2023-04-12T11:33:50.127Z,95495.23
2023-04-12T11:36:18.102Z,95499.21
2023-04-12T11:38:47.282Z,95494.02
2023-04-12T11:41:15.580Z,95491.52
2023-04-12T11:43:44.787Z,95492.79
2023-04-12T11:46:12.873Z,95493.80
2023-04-12T11:48:44.903Z,95491.84
2023-04-12T11:51:25.230Z,95493.98
2023-04-12T11:53:55.122Z,95494.27
2023-04-12T11:56:23.994Z,95500.56
2023-04-12T12:06:32.609Z,95501.49
2023-04-12T12:09:01.008Z,95508.01
2023-04-12T12:11:29.290Z,95506.04
2023-04-12T12:21:37.153Z,95511.42
2023-04-12T12:29:17.653Z,95515.22
2023-04-12T12:31:46.908Z,95517.99
2023-04-12T12:34:15.108Z,95516.98
2023-04-12T12:36:43.200Z,95521.95
2023-04-12T12:39:13.117Z,95524.16
2023-04-12T12:49:20.063Z,95531.31
2023-04-12T12:51:48.221Z,95527.73
2023-04-12T12:54:28.408Z,95530.04
2023-04-12T12:57:04.624Z,95530.05
2023-04-12T12:59:32.712Z,95532.27
2023-04-12T13:02:00.862Z,95535.59
2023-04-12T13:04:29.348Z,95535.62
2023-04-12T13:06:57.737Z,95537.83
2023-04-12T13:09:25.815Z,95538.63
2023-04-12T13:11:53.787Z,95540.06
2023-04-12T13:14:21.756Z,95541.48
2023-04-12T13:16:50.082Z,95539.00
2023-04-12T13:19:18.212Z,95542.30
2023-04-12T13:21:46.166Z,95542.27
2023-04-12T13:24:14.245Z,95546.50
2023-04-12T13:26:43.502Z,95547.55
2023-04-12T13:29:11.625Z,95548.18
2023-04-12T13:31:39.685Z,95551.52
2023-04-12T13:34:07.758Z,95550.13
2023-04-12T13:36:36.029Z,95554.84
2023-04-12T13:39:04.216Z,95553.52
2023-04-12T13:41:33.981Z,95556.05
2023-04-12T13:44:02.191Z,95562.60
2023-04-12T13:46:31.583Z,95564.25
2023-04-12T13:48:59.816Z,95564.33
2023-04-12T13:51:28.578Z,95567.10
2023-04-12T13:53:56.546Z,95574.45
2023-04-12T13:56:24.880Z,95573.35
2023-04-12T13:58:52.886Z,95576.98
2023-04-12T14:01:23.702Z,95575.35
2023-04-12T14:03:53.888Z,95579.90
2023-04-12T14:06:21.986Z,95580.63
2023-04-12T14:08:51.220Z,95577.79
2023-04-12T14:11:19.284Z,95580.08
2023-04-12T14:13:47.256Z,95581.59
2023-04-12T14:16:15.433Z,95580.17
2023-04-12T14:18:43.603Z,95584.66
2023-04-12T14:21:11.666Z,95578.88
2023-04-12T14:23:41.448Z,95580.64
2023-04-12T14:26:16.010Z,95580.92
2023-04-12T14:28:44.095Z,95583.10
2023-04-12T14:31:15.145Z,95583.69
2023-04-12T14:33:43.285Z,95585.00
2023-04-12T14:36:11.871Z,95582.52
2023-04-12T14:38:39.945Z,95584.38
2023-04-12T14:41:08.848Z,95583.48
2023-04-12T14:43:36.919Z,95588.02
2023-04-12T14:46:06.051Z,95592.45
2023-04-12T14:48:34.119Z,95594.39
2023-04-12T14:51:03.797Z,95594.42
2023-04-12T14:53:31.753Z,95598.09
2023-04-12T14:56:02.728Z,95599.70
2023-04-12T14:58:30.868Z,95597.92
2023-04-12T15:01:00.482Z,95597.19
2023-04-12T15:03:30.823Z,95598.48
2023-04-12T15:05:59.343Z,95599.00
2023-04-12T15:08:29.192Z,95599.11
2023-04-12T15:10:57.169Z,95600.26
2023-04-12T15:13:33.542Z,95603.20
2023-04-12T15:16:02.167Z,95600.50
2023-04-12T15:18:30.612Z,95604.35
2023-04-12T15:21:00.432Z,95607.30
2023-04-12T15:23:28.709Z,95607.73
2023-04-12T15:26:01.025Z,95603.30
2023-04-12T15:28:29.058Z,95606.70
2023-04-12T15:30:57.298Z,95615.05
2023-04-12T15:33:26.335Z,95616.02
2023-04-12T15:35:57.859Z,95615.19
2023-04-12T15:38:26.031Z,95619.85
2023-04-12T15:40:55.803Z,95621.20
2023-04-12T15:43:24.735Z,95625.36
2023-04-12T15:45:54.636Z,95623.91
2023-04-12T15:48:23.633Z,95626.11
2023-04-12T15:50:52.221Z,95624.57
2023-04-12T15:53:21.472Z,95627.52
2023-04-12T15:55:55.245Z,95626.77
2023-04-12T15:58:24.253Z,95628.44
2023-04-12T16:00:54.530Z,95627.86
2023-04-12T16:03:23.566Z,95636.63
2023-04-12T16:05:53.749Z,95637.91
2023-04-12T16:08:22.372Z,95637.19
2023-04-12T16:10:51.068Z,95637.80
2023-04-12T16:13:19.726Z,95635.36
2023-04-12T16:15:47.946Z,95640.22
2023-04-12T16:18:16.574Z,95640.69
2023-04-12T16:20:45.434Z,95643.19
2023-04-12T16:23:13.897Z,95642.79
2023-04-12T16:25:42.127Z,95637.39
2023-04-12T16:28:13.380Z,95640.05
2023-04-12T16:30:43.968Z,95640.04
2023-04-12T16:33:12.688Z,95637.77
2023-04-12T16:35:42.042Z,95635.10
2023-04-12T16:38:12.545Z,95640.67
2023-04-12T16:40:42.125Z,95645.70
2023-04-12T16:43:11.226Z,95646.09
2023-04-12T16:45:39.607Z,95646.67
2023-04-12T16:48:10.598Z,95646.89
2023-04-12T16:50:40.760Z,95647.29
2023-04-12T16:53:09.140Z,95646.27
2023-04-12T16:55:47.846Z,95651.39
2023-04-12T16:58:18.478Z,95651.30
2023-04-12T17:00:47.281Z,95651.55
2023-04-12T17:03:16.648Z,95655.08
2023-04-12T17:05:46.923Z,95659.16
2023-04-12T17:08:15.909Z,95664.35
2023-04-12T17:10:44.294Z,95667.88
2023-04-12T17:13:13.457Z,95675.16
2023-04-12T17:15:41.776Z,95674.94
2023-04-12T17:18:10.545Z,95674.66
2023-04-12T17:20:41.851Z,95675.34
2023-04-12T17:23:10.679Z,95678.39
2023-04-12T17:25:39.272Z,95678.04
2023-04-12T17:28:10.402Z,95684.36
2023-04-12T17:30:38.702Z,95685.81
2023-04-12T17:33:07.959Z,95684.20
2023-04-12T17:35:36.878Z,95682.02
2023-04-12T17:38:05.260Z,95683.45
2023-04-12T17:40:33.187Z,95681.69
2023-04-12T17:43:01.218Z,95687.55
2023-04-12T17:45:29.434Z,95689.02
2023-04-12T17:47:57.582Z,95692.94
2023-04-12T17:50:25.919Z,95696.11
2023-04-12T17:52:55.641Z,95699.91
2023-04-12T17:55:24.312Z,95705.10
2023-04-12T17:57:55.153Z,95709.61
2023-04-12T18:00:24.130Z,95710.05
2023-04-12T18:02:52.394Z,95712.70
2023-04-12T18:05:21.013Z,95712.77
2023-04-12T18:07:53.797Z,95714.30
2023-04-12T18:10:23.495Z,95717.12
2023-04-12T18:12:51.681Z,95714.38
2023-04-12T18:15:19.846Z,95716.61
2023-04-12T18:17:48.799Z,95721.23
2023-04-12T18:20:18.564Z,95719.91
2023-04-12T18:22:47.247Z,95722.52
2023-04-12T18:25:17.074Z,95723.79
2023-04-12T18:27:48.607Z,95718.20
2023-04-12T18:30:19.549Z,95725.73
2023-04-12T18:32:48.258Z,95730.07
2023-04-12T18:35:16.914Z,95731.91
2023-04-12T18:37:45.922Z,95732.71
2023-04-12T18:40:14.372Z,95726.46
2023-04-12T18:42:45.635Z,95719.66
2023-04-12T18:45:15.150Z,95721.64
2023-04-12T18:47:44.974Z,95728.09
2023-04-12T18:50:14.288Z,95728.04
2023-04-12T18:52:42.330Z,95722.33
2023-04-12T18:55:10.504Z,95720.84
2023-04-12T18:57:40.314Z,95716.01
2023-04-12T19:00:14.741Z,95715.23
2023-04-12T19:02:43.403Z,95714.46
2023-04-12T19:05:12.009Z,95714.56
2023-04-12T19:07:40.284Z,95714.34
2023-04-12T19:10:09.326Z,95713.25
2023-04-12T19:12:37.341Z,95712.25
2023-04-12T19:15:09.106Z,95710.53
2023-04-12T19:17:39.095Z,95710.33
2023-04-12T19:20:08.428Z,95711.98
2023-04-12T19:22:37.204Z,95709.87
2023-04-12T19:25:05.789Z,95710.51
2023-04-12T19:27:33.869Z,95709.80
2023-04-12T19:30:03.580Z,95706.20
2023-04-12T19:32:32.195Z,95706.06
2023-04-12T19:35:00.146Z,95701.30
2023-04-12T19:37:34.306Z,95701.48
2023-04-12T19:40:06.945Z,95705.41
2023-04-12T19:42:36.866Z,95705.89
2023-04-12T19:45:05.639Z,95708.34
2023-04-12T19:47:34.567Z,95714.79
2023-04-12T19:50:02.603Z,95713.79
2023-04-12T19:52:30.764Z,95715.13
2023-04-12T19:55:01.589Z,95713.57
2023-04-12T19:57:33.445Z,95716.17
2023-04-12T20:00:01.751Z,95713.52
2023-04-12T20:02:33.447Z,95709.91
2023-04-12T20:05:02.081Z,95712.27
2023-04-12T20:07:30.045Z,95708.69
2023-04-12T20:10:00.071Z,95708.23
2023-04-12T20:12:28.279Z,95708.33
2023-04-12T20:14:56.365Z,95704.17
2023-04-12T20:17:24.426Z,95701.83
2023-04-12T20:19:55.372Z,95692.69
2023-04-12T20:22:23.907Z,95696.52
2023-04-12T20:24:54.113Z,95695.52
2023-04-12T20:27:23.233Z,95694.66
2023-04-12T20:29:52.046Z,95691.93
2023-04-12T20:32:20.205Z,95696.48
2023-04-12T20:34:49.936Z,95697.52
2023-04-12T20:37:18.075Z,95694.25
2023-04-12T20:39:46.459Z,95692.52
2023-04-12T20:42:16.668Z,95695.59
2023-04-12T20:44:44.562Z,95699.20
2023-04-12T20:47:12.826Z,95699.52
2023-04-12T20:49:41.613Z,95701.09
2023-04-12T20:52:11.212Z,95700.73
2023-04-12T20:54:39.489Z,95699.23
2023-04-12T20:57:08.080Z,95699.09
2023-04-12T20:59:36.142Z,95694.70
2023-04-12T21:02:04.770Z,95690.95
2023-04-12T21:04:36.439Z,95693.48
2023-04-12T21:07:04.962Z,95695.52
2023-04-12T21:09:32.968Z,95691.21
2023-04-12T21:12:05.204Z,95686.35
2023-04-12T21:14:34.999Z,95685.81
2023-04-12T21:17:07.286Z,95681.59
2023-04-12T21:19:41.934Z,95678.94
2023-04-12T21:22:10.024Z,95679.50
2023-04-12T21:24:40.615Z,95684.12
2023-04-12T21:27:08.693Z,95683.12
2023-04-12T21:29:41.777Z,95679.68
2023-04-12T21:32:10.091Z,95679.44
2023-04-12T21:34:39.403Z,95674.67
2023-04-12T21:37:07.837Z,95676.87
2023-04-12T21:44:42.286Z,95674.63
2023-04-12T21:47:10.472Z,95675.73
2023-04-12T21:49:38.558Z,95681.23
2023-04-12T21:52:06.643Z,95680.45
2023-04-12T21:54:37.129Z,95683.44
2023-04-12T21:57:06.440Z,95675.92
2023-04-12T21:59:34.528Z,95678.05
2023-04-12T22:02:02.695Z,95674.91
2023-04-12T22:04:30.942Z,95670.20
2023-04-12T22:06:58.817Z,95673.11
2023-04-12T22:12:02.454Z,95672.24
2023-04-12T22:14:30.314Z,95676.73
2023-04-12T22:16:59.127Z,95653.00
2023-04-12T22:19:27.279Z,95674.52
2023-04-12T22:21:58.022Z,95669.98
2023-04-12T22:24:26.423Z,95673.45
2023-04-12T22:29:31.998Z,95670.25
2023-04-12T22:32:00.746Z,95671.12
2023-04-12T22:34:28.822Z,95675.35
2023-04-12T22:37:00.116Z,95674.89
2023-04-12T22:39:28.103Z,95670.42
2023-04-12T22:41:57.648Z,95668.70
2023-04-12T22:44:26.538Z,95668.95
2023-04-12T22:46:55.087Z,95664.11
2023-04-12T22:49:31.275Z,95657.69
2023-04-12T22:51:59.353Z,95657.77
2023-04-12T22:54:27.381Z,95649.23
2023-04-12T22:56:55.422Z,95648.85
2023-04-12T22:59:24.708Z,95644.55
2023-04-12T23:01:52.839Z,95641.33
2023-04-12T23:04:21.407Z,95643.42
2023-04-12T23:06:50.816Z,95640.92
2023-04-12T23:09:19.708Z,95645.52
2023-04-12T23:11:47.644Z,95635.14
2023-04-12T23:14:17.952Z,95647.79
2023-04-12T23:16:46.239Z,95650.43
2023-04-12T23:19:14.828Z,95648.46
2023-04-12T23:21:43.647Z,95650.04
2023-04-12T23:24:12.199Z,95646.75
2023-04-12T23:26:40.513Z,95650.98
2023-04-12T23:34:14.756Z,95656.59
2023-04-12T23:36:42.728Z,95647.79
2023-04-12T23:39:10.762Z,95655.58
2023-04-12T23:41:40.873Z,95655.95
2023-04-12T23:44:09.319Z,95657.14
2023-04-12T23:49:10.161Z,95653.53
2023-04-12T23:51:38.151Z,95658.31
2023-04-12T23:54:06.168Z,95660.35
2023-04-12T23:56:34.226Z,95655.64
2023-04-12T23:59:02.653Z,95659.57
